Time;durP1;ratioP1;P1;durP2;ratioP2;P2;SDS_P1;SDS_P2;PMS_P1;PMS_P2;Temp;Humidity;BMP_temperature;BMP_pressure;BME280_temperature;BME280_humidity;BME280_pressure;Samples;Min_cycle;Max_cycle;Signal;HPM_P1;HPM_P2
2022/05/03 00:02:14;;;;;;;1.27;0.70;;;12.10;99.90;;;;;;6290067;22;20178;-91
2022/05/03 00:04:58;;;;;;;0.80;0.60;;;12.10;99.90;;;;;;6313847;22;20197;-91
2022/05/03 00:07:36;;;;;;;0.73;0.50;;;12.10;99.90;;;;;;6312206;22;20184;-90
2022/05/03 00:10:11;;;;;;;0.73;0.50;;;12.10;99.90;;;;;;6317690;22;20544;-90
2022/05/03 00:12:47;;;;;;;0.93;0.77;;;12.10;99.90;;;;;;6300048;22;20482;-91
2022/05/03 00:15:22;;;;;;;0.67;0.67;;;12.10;99.90;;;;;;6282155;22;20167;-90
2022/05/03 00:17:56;;;;;;;1.03;0.60;;;12.10;99.90;;;;;;6284295;22;20206;-91
2022/05/03 00:23:15;;;;;;;1.70;0.90;;;12.00;99.90;;;;;;6284644;22;20174;-90
2022/05/03 00:25:48;;;;;;;1.57;0.70;;;12.00;99.90;;;;;;6284508;22;20179;-90
2022/05/03 00:28:20;;;;;;;2.33;1.30;;;12.00;99.90;;;;;;6283787;22;20163;-90
2022/05/03 00:30:51;;;;;;;1.93;1.00;;;12.10;99.90;;;;;;6287672;22;21016;-90
2022/05/03 00:33:29;;;;;;;1.20;0.90;;;12.10;99.90;;;;;;6283054;22;20163;-90
2022/05/03 00:36:01;;;;;;;2.27;1.10;;;12.10;99.90;;;;;;6292334;22;20179;-90
2022/05/03 00:38:34;;;;;;;0.73;0.73;;;12.10;99.90;;;;;;6286139;22;20219;-90
2022/05/03 00:41:08;;;;;;;1.40;1.10;;;12.10;99.90;;;;;;6283979;22;20247;-89
2022/05/03 00:43:48;;;;;;;1.73;1.07;;;12.00;99.90;;;;;;6285829;22;20198;-90
2022/05/03 00:46:23;;;;;;;2.20;0.90;;;12.00;99.90;;;;;;6284511;22;20175;-90
2022/05/03 00:49:13;;;;;;;1.87;1.20;;;12.00;99.90;;;;;;6281216;22;20658;-90
2022/05/03 00:51:52;;;;;;;0.97;0.83;;;12.10;99.90;;;;;;6282134;22;20221;-90
2022/05/03 00:54:35;;;;;;;3.17;1.00;;;12.10;99.90;;;;;;6283509;22;20178;-89
2022/05/03 00:57:20;;;;;;;3.37;1.03;;;12.10;99.90;;;;;;6284036;22;20171;-89
2022/05/03 01:00:08;;;;;;;1.83;0.90;;;12.00;99.90;;;;;;6300017;22;20187;-91
2022/05/03 01:03:12;;;;;;;3.83;0.87;;;11.90;99.90;;;;;;6300573;22;20194;-90
2022/05/03 01:06:01;;;;;;;2.77;0.87;;;11.80;99.90;;;;;;6293640;22;20167;-90
2022/05/03 01:08:38;;;;;;;1.60;0.70;;;11.90;99.90;;;;;;6283305;22;20226;-91
2022/05/03 01:11:23;;;;;;;1.73;1.00;;;11.90;99.90;;;;;;6282955;22;20201;-90
2022/05/03 01:14:02;;;;;;;2.80;1.00;;;11.80;99.90;;;;;;6283046;22;20263;-90
2022/05/03 01:16:41;;;;;;;1.93;1.10;;;11.70;99.90;;;;;;6286148;22;20171;-90
2022/05/03 01:19:35;;;;;;;2.70;1.20;;;11.80;99.90;;;;;;6282755;22;20202;-90
2022/05/03 01:22:15;;;;;;;0.93;0.80;;;11.70;99.90;;;;;;6284131;22;20175;-90
2022/05/03 01:25:19;;;;;;;2.77;1.00;;;11.90;99.90;;;;;;6288357;22;20217;-90
2022/05/03 01:28:00;;;;;;;2.10;0.90;;;11.80;99.90;;;;;;6283270;22;20625;-91
2022/05/03 01:30:33;;;;;;;4.37;0.90;;;11.80;99.90;;;;;;6281724;22;20175;-91
2022/05/03 01:33:10;;;;;;;1.30;1.10;;;11.70;99.90;;;;;;6281258;22;20175;-91
2022/05/03 01:35:42;;;;;;;1.13;0.80;;;11.70;99.90;;;;;;6279973;22;20556;-90
2022/05/03 01:38:28;;;;;;;1.17;1.03;;;11.60;99.90;;;;;;6281862;22;20626;-90
2022/05/03 01:41:20;;;;;;;1.63;0.97;;;11.70;99.90;;;;;;6286418;22;20178;-90
2022/05/03 01:44:11;;;;;;;1.73;0.93;;;11.70;99.90;;;;;;6278593;22;20207;-90
2022/05/03 01:46:45;;;;;;;1.83;1.43;;;11.70;99.90;;;;;;6281271;22;20614;-89
2022/05/03 01:52:37;;;;;;;3.40;1.40;;;11.70;99.90;;;;;;6218171;22;20185;-90
2022/05/03 01:55:32;;;;;;;1.20;0.90;;;11.60;99.90;;;;;;6280761;22;20167;-90
2022/05/03 01:58:20;;;;;;;7.33;1.43;;;11.70;99.90;;;;;;6282237;22;20508;-90
2022/05/03 02:01:05;;;;;;;1.10;1.00;;;11.60;99.90;;;;;;6281338;22;20562;-88
2022/05/03 02:03:47;;;;;;;1.17;0.93;;;11.50;99.90;;;;;;6286519;22;20175;-90
2022/05/03 02:06:31;;;;;;;2.27;1.00;;;11.50;99.90;;;;;;6280881;22;20244;-90
2022/05/03 02:09:06;;;;;;;1.73;1.03;;;11.60;99.90;;;;;;6287182;22;20637;-90
2022/05/03 02:11:49;;;;;;;1.50;0.90;;;11.60;99.90;;;;;;6293466;22;20167;-90
2022/05/03 02:17:56;;;;;;;3.17;1.47;;;11.60;99.90;;;;;;6268047;22;20194;-90
2022/05/03 02:21:15;;;;;;;2.60;1.00;;;11.50;99.90;;;;;;6268562;22;20205;-91
2022/05/03 02:24:05;;;;;;;1.00;0.80;;;11.40;99.90;;;;;;6292997;22;20191;-89
2022/05/03 02:26:46;;;;;;;2.37;1.17;;;11.30;99.90;;;;;;6293976;22;20175;-91
2022/05/03 02:29:21;;;;;;;2.50;1.37;;;11.20;99.90;;;;;;6286816;22;20179;-91
2022/05/03 02:32:03;;;;;;;1.20;1.10;;;11.20;99.90;;;;;;6294103;22;20163;-90
2022/05/03 02:37:27;;;;;;;1.17;1.07;;;11.20;99.90;;;;;;6276729;22;20211;-91
2022/05/03 02:40:07;;;;;;;3.10;1.10;;;11.20;99.90;;;;;;6268157;22;20195;-91
2022/05/03 02:42:38;;;;;;;1.20;1.10;;;11.10;99.90;;;;;;6267346;22;20179;-90
2022/05/03 02:45:10;;;;;;;2.47;1.03;;;11.10;99.90;;;;;;6268148;22;20175;-90
2022/05/03 02:47:57;;;;;;;1.40;1.07;;;11.10;99.90;;;;;;6266548;23;20176;-90
2022/05/03 02:50:38;;;;;;;1.20;1.07;;;11.00;99.90;;;;;;6271493;23;20182;-90
2022/05/03 02:53:22;;;;;;;2.00;1.00;;;11.00;99.90;;;;;;6270196;23;20175;-90
2022/05/03 02:55:56;;;;;;;2.63;1.10;;;11.10;99.90;;;;;;6266060;23;20172;-90
2022/05/03 02:58:55;;;;;;;1.60;1.20;;;11.10;99.90;;;;;;6269058;23;20234;-90
2022/05/03 03:01:49;;;;;;;2.97;0.90;;;11.10;99.90;;;;;;6257566;23;20180;-89
2022/05/03 03:04:34;;;;;;;1.53;1.00;;;11.00;99.90;;;;;;6240488;23;20191;-90
2022/05/03 03:07:16;;;;;;;3.07;0.83;;;10.90;99.90;;;;;;6266257;23;20168;-90
2022/05/03 03:09:54;;;;;;;2.87;1.00;;;10.80;99.90;;;;;;6262552;23;20210;-90
2022/05/03 03:12:37;;;;;;;1.77;1.00;;;10.70;99.90;;;;;;6264231;22;20223;-90
2022/05/03 03:15:21;;;;;;;1.33;1.03;;;10.80;99.90;;;;;;6261875;22;20221;-90
2022/05/03 03:17:54;;;;;;;1.87;0.80;;;10.70;99.90;;;;;;6273320;22;20167;-89
2022/05/03 03:20:27;;;;;;;2.90;0.90;;;10.80;99.90;;;;;;6268362;23;20203;-90
2022/05/03 03:23:02;;;;;;;2.00;1.00;;;10.80;99.90;;;;;;6268809;23;20163;-91
2022/05/03 03:28:25;;;;;;;2.00;1.00;;;10.70;99.90;;;;;;6262749;23;20168;-91
2022/05/03 03:30:58;;;;;;;3.43;0.70;;;10.70;99.90;;;;;;6239395;23;20175;-90
2022/05/03 03:33:34;;;;;;;2.37;1.00;;;10.70;99.90;;;;;;6265285;22;20168;-91
2022/05/03 03:36:07;;;;;;;1.20;1.00;;;10.70;99.90;;;;;;6267177;23;20198;-91
2022/05/03 03:38:45;;;;;;;2.33;1.10;;;10.70;99.90;;;;;;6264438;23;20164;-89
2022/05/03 03:41:21;;;;;;;1.27;1.17;;;10.50;99.90;;;;;;6266714;22;20198;-91
2022/05/03 03:43:56;;;;;;;3.27;1.10;;;10.50;99.90;;;;;;6239009;23;20179;-91
2022/05/03 03:46:29;;;;;;;3.63;1.27;;;10.50;99.90;;;;;;6258316;23;20175;-91
2022/05/03 03:49:02;;;;;;;1.83;1.10;;;10.50;99.90;;;;;;6233824;23;20192;-89
2022/05/03 03:51:34;;;;;;;2.07;1.00;;;10.60;99.90;;;;;;6266599;23;20168;-90
2022/05/03 03:54:10;;;;;;;2.27;1.03;;;10.60;99.90;;;;;;6257117;23;20559;-91
2022/05/03 03:56:47;;;;;;;2.00;1.10;;;10.60;99.90;;;;;;6253574;23;20176;-91
2022/05/03 03:59:18;;;;;;;1.53;1.00;;;10.60;99.90;;;;;;6238385;23;20202;-90
2022/05/03 04:01:52;;;;;;;1.90;1.13;;;10.50;99.90;;;;;;6244384;23;20195;-91
2022/05/03 04:04:31;;;;;;;2.67;0.80;;;10.50;99.90;;;;;;6266453;23;20167;-90
2022/05/03 04:07:06;;;;;;;1.10;1.00;;;10.50;99.90;;;;;;6269250;23;20191;-90
2022/05/03 04:09:38;;;;;;;3.23;1.30;;;10.50;99.90;;;;;;6271512;22;20159;-90
2022/05/03 04:12:12;;;;;;;2.17;1.27;;;10.50;99.90;;;;;;6272351;22;20175;-91
2022/05/03 04:14:43;;;;;;;3.70;0.90;;;10.50;99.90;;;;;;6261844;22;20213;-90
2022/05/03 04:17:16;;;;;;;1.27;1.00;;;10.50;99.90;;;;;;6253186;22;20183;-90
2022/05/03 04:19:49;;;;;;;2.00;0.90;;;10.50;99.90;;;;;;6255302;23;20278;-90
2022/05/03 04:22:29;;;;;;;4.53;1.00;;;10.60;99.90;;;;;;6254248;23;20434;-90
2022/05/03 04:25:03;;;;;;;2.33;1.00;;;10.60;99.90;;;;;;6259975;23;20168;-90
2022/05/03 04:27:37;;;;;;;2.10;1.13;;;10.60;99.90;;;;;;6249739;23;20171;-90
2022/05/03 04:30:10;;;;;;;1.10;1.00;;;10.50;99.90;;;;;;6250835;23;20255;-91
2022/05/03 04:32:43;;;;;;;2.27;1.00;;;10.60;99.90;;;;;;6226232;23;20168;-91
2022/05/03 04:35:14;;;;;;;1.40;1.00;;;10.50;99.90;;;;;;6251949;23;20187;-91
2022/05/03 04:37:45;;;;;;;0.97;0.90;;;10.60;99.90;;;;;;6224376;23;20191;-90
2022/05/03 04:40:16;;;;;;;2.50;1.10;;;10.50;99.90;;;;;;6251316;23;20206;-90
2022/05/03 04:42:51;;;;;;;2.63;1.00;;;10.40;99.90;;;;;;6250511;23;20182;-91
2022/05/03 04:45:22;;;;;;;0.80;0.80;;;10.40;99.90;;;;;;6251634;23;20175;-91
2022/05/03 04:47:54;;;;;;;1.10;1.00;;;10.40;99.90;;;;;;6251443;23;20175;-91
2022/05/03 04:50:31;;;;;;;2.30;1.00;;;10.40;99.90;;;;;;6252397;23;20612;-91
2022/05/03 04:53:03;;;;;;;1.97;1.00;;;10.40;99.90;;;;;;6251995;23;20164;-90
2022/05/03 04:55:47;;;;;;;2.90;0.97;;;10.40;99.90;;;;;;6231237;23;20176;-90
2022/05/03 04:58:24;;;;;;;3.00;1.03;;;10.50;99.90;;;;;;6258094;23;20176;-90
2022/05/03 05:01:02;;;;;;;1.90;1.30;;;10.40;99.90;;;;;;6257252;23;20242;-90
2022/05/03 05:03:34;;;;;;;2.93;1.03;;;10.50;99.90;;;;;;6263038;22;20227;-90
2022/05/03 05:06:07;;;;;;;2.77;1.10;;;10.50;99.90;;;;;;6255938;23;20229;-88
2022/05/03 05:08:39;;;;;;;1.30;1.20;;;10.50;99.90;;;;;;6250082;23;20176;-89
2022/05/03 05:11:12;;;;;;;1.80;1.30;;;10.40;99.90;;;;;;6251753;23;20168;-89
2022/05/03 05:13:46;;;;;;;4.00;0.90;;;10.40;99.90;;;;;;6250860;23;20175;-89
2022/05/03 05:16:17;;;;;;;1.10;1.00;;;10.40;99.90;;;;;;6251245;23;20180;-90
2022/05/03 05:18:48;;;;;;;3.27;1.07;;;10.40;99.90;;;;;;6249950;23;20243;-90
2022/05/03 05:21:19;;;;;;;1.93;1.20;;;10.40;99.90;;;;;;6251890;23;20219;-89
2022/05/03 05:23:50;;;;;;;1.20;1.00;;;10.40;99.90;;;;;;6256944;23;20226;-90
2022/05/03 05:26:22;;;;;;;2.57;1.00;;;10.40;99.90;;;;;;6267412;23;20242;-90
2022/05/03 05:31:45;;;;;;;1.73;1.10;;;10.40;99.90;;;;;;6253369;23;20184;-90
2022/05/03 05:34:18;;;;;;;1.10;0.90;;;10.40;99.90;;;;;;6251551;23;20645;-90
2022/05/03 05:36:50;;;;;;;1.23;0.83;;;10.40;99.90;;;;;;6252730;23;20164;-90
2022/05/03 05:39:21;;;;;;;2.20;1.03;;;10.40;99.90;;;;;;6249595;23;20182;-90
2022/05/03 05:41:56;;;;;;;2.93;0.87;;;10.40;99.90;;;;;;6252959;23;20196;-91
2022/05/03 05:44:31;;;;;;;1.50;0.80;;;10.40;99.90;;;;;;6250275;23;20251;-90
2022/05/03 05:47:02;;;;;;;1.23;0.90;;;10.40;99.90;;;;;;6250706;23;20652;-91
2022/05/03 05:49:34;;;;;;;1.93;1.03;;;10.50;99.90;;;;;;6252116;23;20171;-90
2022/05/03 05:54:53;;;;;;;1.57;0.90;;;10.40;99.90;;;;;;6255907;23;20234;-90
2022/05/03 05:57:25;;;;;;;1.67;1.07;;;10.30;99.90;;;;;;6252974;23;20179;-90
2022/05/03 05:59:59;;;;;;;1.77;0.80;;;10.30;99.90;;;;;;6251385;23;20225;-90
2022/05/03 06:02:31;;;;;;;2.97;0.90;;;10.40;99.90;;;;;;6251416;23;20244;-90
2022/05/03 06:05:02;;;;;;;1.57;0.80;;;10.40;99.90;;;;;;6251744;22;20183;-90
2022/05/03 06:07:33;;;;;;;2.20;0.90;;;10.40;99.90;;;;;;6250842;23;20164;-90
2022/05/03 06:10:06;;;;;;;4.90;1.00;;;10.30;99.90;;;;;;6228585;23;20194;-90
2022/05/03 06:12:39;;;;;;;0.97;0.70;;;10.30;99.90;;;;;;6255029;23;20167;-90
2022/05/03 06:15:13;;;;;;;1.47;0.70;;;10.30;99.90;;;;;;6254342;23;20168;-90
2022/05/03 06:17:44;;;;;;;1.53;1.00;;;10.40;99.90;;;;;;6254956;23;20175;-90
2022/05/03 06:20:17;;;;;;;0.87;0.80;;;10.30;99.90;;;;;;6253537;23;20190;-90
2022/05/03 06:22:48;;;;;;;2.40;1.00;;;10.30;99.90;;;;;;6253774;23;20191;-90
2022/05/03 06:25:19;;;;;;;2.43;1.00;;;10.30;99.90;;;;;;6251044;23;20210;-89
2022/05/03 06:27:50;;;;;;;1.43;0.87;;;10.40;99.90;;;;;;6250113;23;20191;-89
2022/05/03 06:30:24;;;;;;;2.97;0.80;;;10.40;99.90;;;;;;6250541;23;20212;-90
2022/05/03 06:32:57;;;;;;;1.70;0.80;;;10.40;99.90;;;;;;6250733;23;20176;-89
2022/05/03 06:35:28;;;;;;;1.37;0.80;;;10.40;99.90;;;;;;6251660;23;20207;-89
2022/05/03 06:38:00;;;;;;;1.40;0.70;;;10.40;99.90;;;;;;6254941;23;20198;-90
2022/05/03 06:40:32;;;;;;;1.17;0.70;;;10.40;99.90;;;;;;6255511;22;20171;-90
2022/05/03 06:43:05;;;;;;;1.87;0.70;;;10.30;99.90;;;;;;6255015;23;20568;-90
2022/05/03 06:45:39;;;;;;;1.47;0.80;;;10.30;99.90;;;;;;6254771;23;20176;-89
2022/05/03 06:48:12;;;;;;;1.47;0.70;;;10.30;99.90;;;;;;6254012;23;20175;-89
2022/05/03 06:50:43;;;;;;;0.87;0.77;;;10.20;99.90;;;;;;6252507;23;20179;-90
2022/05/03 06:53:19;;;;;;;3.50;0.97;;;10.10;99.90;;;;;;6253111;23;20175;-90
2022/05/03 06:55:51;;;;;;;2.33;0.70;;;10.20;99.90;;;;;;6252679;22;20176;-90
2022/05/03 06:58:22;;;;;;;1.33;0.63;;;10.10;99.90;;;;;;6251658;23;20703;-91
2022/05/03 07:00:56;;;;;;;1.20;0.80;;;10.20;99.90;;;;;;6253091;23;20198;-90
2022/05/03 07:03:28;;;;;;;1.40;0.50;;;10.20;99.90;;;;;;6270094;22;20224;-89
2022/05/03 07:05:59;;;;;;;1.07;0.80;;;10.20;99.90;;;;;;6270590;23;20182;-89
2022/05/03 07:08:32;;;;;;;0.97;0.63;;;10.20;99.90;;;;;;6241973;23;20176;-90
2022/05/03 07:11:06;;;;;;;1.70;0.80;;;10.20;99.90;;;;;;6266182;22;20205;-90
2022/05/03 07:13:37;;;;;;;0.70;0.60;;;10.20;99.90;;;;;;6235210;23;20175;-90
2022/05/03 07:16:12;;;;;;;1.33;0.70;;;10.20;99.90;;;;;;6255891;23;20176;-90
2022/05/03 07:24:24;;;;;;;2.13;0.70;;;10.20;99.90;;;;;;6258278;23;20234;-90
2022/05/03 07:26:58;;;;;;;2.10;0.80;;;10.20;99.90;;;;;;6250804;23;20198;-90
2022/05/03 07:29:29;;;;;;;2.47;0.90;;;10.20;99.90;;;;;;6250774;23;20257;-90
2022/05/03 07:32:03;;;;;;;2.77;0.87;;;10.20;99.90;;;;;;6251336;23;20182;-90
2022/05/03 07:34:34;;;;;;;1.70;0.83;;;10.20;99.90;;;;;;6252743;23;20180;-90
2022/05/03 07:37:06;;;;;;;2.27;0.80;;;10.20;99.90;;;;;;6263811;23;20176;-90
2022/05/03 07:39:37;;;;;;;4.37;0.80;;;10.30;99.90;;;;;;6265234;23;20190;-90
2022/05/03 07:42:08;;;;;;;3.00;0.73;;;10.40;99.90;;;;;;6263326;23;20206;-90
2022/05/03 07:44:39;;;;;;;5.20;1.23;;;10.30;99.90;;;;;;6253540;23;20187;-90
2022/05/03 07:47:14;;;;;;;4.07;1.00;;;10.30;99.90;;;;;;6259313;23;20179;-89
2022/05/03 07:49:45;;;;;;;1.57;0.80;;;10.30;99.90;;;;;;6264310;23;20164;-91
2022/05/03 07:52:17;;;;;;;1.50;0.80;;;10.30;99.90;;;;;;6270725;23;20168;-89
2022/05/03 07:54:48;;;;;;;2.20;0.70;;;10.30;99.90;;;;;;6234335;23;20210;-90
2022/05/03 07:57:20;;;;;;;2.00;0.80;;;10.30;99.90;;;;;;6262301;23;20212;-91
2022/05/03 07:59:50;;;;;;;2.73;0.80;;;10.20;99.90;;;;;;6264197;23;20603;-92
2022/05/03 08:02:24;;;;;;;6.43;0.70;;;10.20;99.90;;;;;;6256068;23;20202;-90
2022/05/03 08:04:57;;;;;;;1.60;0.70;;;10.20;99.90;;;;;;6252810;22;20194;-90
2022/05/03 08:07:28;;;;;;;2.17;0.80;;;10.20;99.90;;;;;;6253413;23;20693;-89
2022/05/03 08:09:59;;;;;;;2.23;0.80;;;10.20;99.90;;;;;;6252377;23;20195;-90
2022/05/03 08:12:31;;;;;;;3.90;0.80;;;10.30;99.90;;;;;;6251425;23;20183;-90
2022/05/03 08:15:03;;;;;;;4.83;0.90;;;10.30;99.90;;;;;;6251484;23;20175;-90
2022/05/03 08:17:36;;;;;;;1.77;0.70;;;10.20;99.90;;;;;;6251564;23;20176;-90
2022/05/03 08:20:09;;;;;;;1.53;0.60;;;10.10;99.90;;;;;;6251504;23;20209;-90
2022/05/03 08:22:41;;;;;;;2.00;0.87;;;10.00;99.90;;;;;;6251661;23;20191;-90
2022/05/03 08:25:14;;;;;;;3.23;0.87;;;9.90;99.90;;;;;;6251967;23;20560;-90
2022/05/03 08:27:45;;;;;;;1.80;0.90;;;9.90;99.90;;;;;;6251184;23;20183;-90
2022/05/03 08:30:16;;;;;;;1.83;0.73;;;9.90;99.90;;;;;;6251617;23;20340;-91
2022/05/03 08:32:50;;;;;;;2.60;1.10;;;9.90;99.90;;;;;;6266839;23;20194;-90
2022/05/03 08:35:24;;;;;;;2.07;1.00;;;9.90;99.90;;;;;;6271901;22;20171;-90
2022/05/03 08:43:37;;;;;;;3.60;1.13;;;9.90;99.90;;;;;;6272271;22;20215;-90
2022/05/03 08:46:09;;;;;;;1.73;1.17;;;10.00;99.90;;;;;;6272690;22;20208;-90
2022/05/03 08:48:47;;;;;;;1.63;1.30;;;10.10;99.90;;;;;;6246700;22;20167;-90
2022/05/03 08:51:24;;;;;;;3.27;1.30;;;10.10;99.90;;;;;;6248237;22;20160;-90
2022/05/03 08:53:55;;;;;;;1.70;1.33;;;10.20;99.90;;;;;;6272877;22;20172;-90
2022/05/03 08:56:28;;;;;;;2.70;1.47;;;10.20;99.90;;;;;;6271924;22;20218;-91
2022/05/03 08:58:59;;;;;;;1.63;1.40;;;10.20;99.90;;;;;;6271665;22;20186;-90
2022/05/03 09:01:30;;;;;;;3.20;1.50;;;10.20;99.90;;;;;;6271400;22;20172;-89
2022/05/03 09:04:04;;;;;;;3.10;1.30;;;10.20;99.90;;;;;;6270295;22;20195;-90
2022/05/03 09:06:46;;;;;;;2.80;1.10;;;10.20;99.90;;;;;;6269075;23;20176;-90
2022/05/03 09:09:20;;;;;;;2.90;1.50;;;10.20;99.90;;;;;;6269040;22;20172;-89
2022/05/03 09:11:53;;;;;;;1.37;1.20;;;10.20;99.90;;;;;;6268296;23;20186;-90
2022/05/03 09:14:39;;;;;;;2.07;1.30;;;10.20;99.90;;;;;;6267970;22;20172;-89
2022/05/03 09:17:11;;;;;;;2.50;1.37;;;10.20;99.90;;;;;;6268521;23;20172;-90
2022/05/03 09:19:45;;;;;;;2.87;1.47;;;10.10;99.90;;;;;;6266556;23;20175;-91
2022/05/03 09:25:15;;;;;;;2.93;1.57;;;10.10;99.90;;;;;;6267554;23;20158;-90
2022/05/03 09:27:47;;;;;;;1.90;1.40;;;10.10;99.90;;;;;;6266253;23;20171;-90
2022/05/03 09:30:20;;;;;;;2.13;1.20;;;10.20;99.90;;;;;;6264322;23;20182;-91
2022/05/03 09:32:54;;;;;;;1.67;0.97;;;10.20;99.90;;;;;;6243557;23;20176;-90
2022/05/03 09:35:36;;;;;;;1.87;1.40;;;10.30;99.90;;;;;;6268363;23;20175;-89
2022/05/03 09:38:08;;;;;;;1.43;1.33;;;10.30;99.90;;;;;;6269835;22;20198;-89
2022/05/03 09:40:41;;;;;;;1.93;1.27;;;10.20;99.90;;;;;;6271710;22;20187;-88
2022/05/03 09:43:13;;;;;;;1.53;1.43;;;10.20;99.90;;;;;;6269670;23;20203;-90
2022/05/03 09:45:44;;;;;;;1.97;1.60;;;10.20;99.90;;;;;;6269151;23;20186;-89
2022/05/03 09:48:15;;;;;;;1.93;1.70;;;10.10;99.90;;;;;;6266476;23;20220;-89
2022/05/03 09:50:50;;;;;;;4.10;2.20;;;10.00;99.90;;;;;;6238972;23;20219;-89
2022/05/03 09:53:23;;;;;;;5.03;2.47;;;10.00;99.90;;;;;;6266417;23;20191;-90
2022/05/03 09:55:54;;;;;;;2.73;2.10;;;9.90;99.90;;;;;;6265062;23;20191;-90
2022/05/03 09:58:28;;;;;;;3.03;1.83;;;9.90;99.90;;;;;;6256237;23;20229;-90
2022/05/03 10:01:00;;;;;;;4.63;1.87;;;10.00;99.90;;;;;;6253787;23;20167;-90
2022/05/03 10:03:31;;;;;;;5.43;1.90;;;9.90;99.90;;;;;;6252934;22;20282;-90
2022/05/03 10:06:06;;;;;;;3.37;1.87;;;9.90;99.90;;;;;;6203096;23;20229;-91
2022/05/03 10:08:38;;;;;;;1.97;1.73;;;9.90;99.90;;;;;;6252130;23;20171;-90
2022/05/03 10:11:09;;;;;;;3.13;1.73;;;9.90;99.90;;;;;;6252144;23;20277;-91
2022/05/03 10:13:41;;;;;;;6.67;1.70;;;9.90;99.90;;;;;;6251503;23;20622;-90
2022/05/03 10:22:03;;;;;;;7.80;1.43;;;9.60;99.90;;;;;;6250944;23;20183;-90
2022/05/03 10:24:53;;;;;;;8.00;1.37;;;9.70;99.90;;;;;;6252540;23;20262;-90
2022/05/03 10:27:31;;;;;;;4.27;1.20;;;9.70;99.90;;;;;;6249689;23;20191;-90
2022/05/03 10:30:23;;;;;;;3.77;1.10;;;9.70;99.90;;;;;;6250957;23;20175;-90
2022/05/03 10:33:31;;;;;;;7.80;1.40;;;9.60;99.90;;;;;;6247351;23;20203;-90
2022/05/03 10:36:03;;;;;;;5.50;1.03;;;9.60;99.90;;;;;;6224496;23;20176;-88
2022/05/03 10:38:40;;;;;;;8.90;1.60;;;9.50;99.90;;;;;;6250224;23;20673;-89
2022/05/03 10:41:12;;;;;;;8.57;1.87;;;9.50;99.90;;;;;;6250788;23;20536;-91
2022/05/03 10:43:43;;;;;;;4.83;1.23;;;9.40;99.90;;;;;;6224259;23;20203;-90
2022/05/03 10:46:16;;;;;;;6.57;1.73;;;9.30;99.90;;;;;;6225943;23;20171;-90
2022/05/03 10:49:06;;;;;;;5.43;1.10;;;9.30;99.90;;;;;;6249425;23;20172;-89
2022/05/03 10:51:41;;;;;;;11.63;1.40;;;9.30;99.90;;;;;;6250842;23;20161;-90
2022/05/03 10:54:14;;;;;;;5.77;1.10;;;9.20;99.90;;;;;;6225323;23;20183;-90
2022/05/03 10:57:03;;;;;;;6.37;1.30;;;9.20;99.90;;;;;;6250579;23;20210;-91
2022/05/03 10:59:48;;;;;;;5.67;1.03;;;9.10;99.90;;;;;;6250934;23;20248;-90
2022/05/03 11:02:22;;;;;;;6.63;2.00;;;9.00;99.90;;;;;;6251075;23;20190;-90
2022/05/03 11:05:15;;;;;;;5.77;1.40;;;9.00;99.90;;;;;;6251495;22;20214;-90
2022/05/03 11:08:18;;;;;;;9.67;1.30;;;9.00;99.90;;;;;;6251641;23;20187;-90
2022/05/03 11:10:51;;;;;;;10.83;1.47;;;9.00;99.90;;;;;;6253653;23;20187;-90
2022/05/03 11:13:41;;;;;;;9.87;1.60;;;9.00;99.90;;;;;;6251927;23;20176;-90
2022/05/03 11:16:27;;;;;;;6.23;1.20;;;9.10;99.90;;;;;;6226190;23;20179;-90
2022/05/03 11:18:58;;;;;;;5.37;1.70;;;9.10;99.90;;;;;;6251149;23;20234;-90
2022/05/03 11:21:30;;;;;;;8.47;1.37;;;9.00;99.90;;;;;;6252292;23;20225;-90
2022/05/03 11:24:02;;;;;;;6.27;1.43;;;9.00;99.90;;;;;;6252411;23;20221;-90
2022/05/03 11:26:40;;;;;;;7.27;1.40;;;9.00;99.90;;;;;;6226186;23;20203;-90
2022/05/03 11:29:13;;;;;;;6.63;1.30;;;9.00;99.90;;;;;;6227171;23;20186;-90
2022/05/03 11:31:49;;;;;;;6.93;1.57;;;9.10;99.90;;;;;;6252024;23;20183;-91
2022/05/03 11:34:22;;;;;;;8.50;1.70;;;8.90;99.90;;;;;;6226273;23;20219;-90
2022/05/03 11:36:54;;;;;;;5.77;1.90;;;8.90;99.90;;;;;;6226775;23;20179;-89
2022/05/03 11:39:25;;;;;;;8.47;1.87;;;8.90;99.90;;;;;;6251782;23;20202;-91
2022/05/03 11:41:59;;;;;;;5.60;1.70;;;9.00;99.90;;;;;;6257185;23;20704;-89
2022/05/03 11:44:31;;;;;;;6.53;1.40;;;9.00;99.90;;;;;;6226469;23;20218;-90
2022/05/03 11:47:05;;;;;;;5.43;1.60;;;8.90;99.90;;;;;;6251968;23;20202;-90
2022/05/03 11:49:38;;;;;;;7.33;1.00;;;8.90;99.90;;;;;;6225212;23;20255;-90
2022/05/03 11:57:49;;;;;;;6.10;1.30;;;8.90;99.90;;;;;;6229226;23;20172;-90
2022/05/03 12:00:21;;;;;;;6.70;1.60;;;8.80;99.90;;;;;;6251854;23;20202;-90
2022/05/03 12:02:52;;;;;;;7.77;1.40;;;8.80;99.90;;;;;;6257797;22;20176;-90
2022/05/03 12:05:24;;;;;;;7.43;1.30;;;8.80;99.90;;;;;;6272364;22;20191;-89
2022/05/03 12:07:56;;;;;;;9.23;1.30;;;8.80;99.90;;;;;;6271443;22;20163;-90
2022/05/03 12:10:29;;;;;;;8.37;1.27;;;8.80;99.90;;;;;;6261326;22;20171;-91
2022/05/03 12:13:12;;;;;;;5.90;1.30;;;8.70;99.90;;;;;;6256482;23;20172;-91
2022/05/03 12:15:47;;;;;;;6.53;1.10;;;8.80;99.90;;;;;;6255718;23;20179;-90
2022/05/03 12:18:23;;;;;;;6.17;1.47;;;8.80;99.90;;;;;;6256680;23;20177;-91
2022/05/03 12:20:57;;;;;;;4.87;1.23;;;8.80;99.90;;;;;;6229527;23;20174;-92
2022/05/03 12:23:39;;;;;;;6.80;1.57;;;8.80;99.90;;;;;;6253803;23;20178;-92
2022/05/03 12:26:27;;;;;;;6.73;3.00;;;8.70;99.90;;;;;;6252574;23;20174;-91
2022/05/03 12:29:17;;;;;;;4.30;1.00;;;8.70;99.90;;;;;;6252433;23;20203;-91
2022/05/03 12:31:49;;;;;;;5.57;1.13;;;8.60;99.90;;;;;;6252441;23;20464;-91
2022/05/03 12:34:24;;;;;;;5.27;1.33;;;8.60;99.90;;;;;;6256756;23;20168;-89
2022/05/03 12:37:05;;;;;;;6.77;1.27;;;8.60;99.90;;;;;;6251610;23;20167;-88
2022/05/03 12:39:39;;;;;;;4.97;1.27;;;8.60;99.90;;;;;;6250669;23;20235;-90
2022/05/03 12:42:15;;;;;;;4.57;1.30;;;8.60;99.90;;;;;;6256670;23;20184;-89
2022/05/03 12:44:54;;;;;;;4.77;0.87;;;8.60;99.90;;;;;;6251133;23;20241;-89
2022/05/03 12:47:27;;;;;;;4.57;1.30;;;8.60;99.90;;;;;;6249929;23;20177;-90
2022/05/03 12:49:59;;;;;;;4.33;1.30;;;8.60;99.90;;;;;;6249394;22;20215;-90
2022/05/03 12:52:30;;;;;;;3.07;1.10;;;8.60;99.90;;;;;;6226902;23;20236;-90
2022/05/03 12:55:02;;;;;;;7.23;1.20;;;8.70;99.90;;;;;;6253006;23;20167;-90
2022/05/03 13:00:25;;;;;;;6.57;1.20;;;8.80;99.90;;;;;;6252899;23;20174;-90
2022/05/03 13:03:00;;;;;;;5.70;1.20;;;8.70;99.90;;;;;;6253721;23;20987;-87
2022/05/03 13:05:31;;;;;;;2.80;0.90;;;8.70;99.90;;;;;;6253902;23;20191;-90
2022/05/03 13:08:03;;;;;;;6.03;1.30;;;8.70;99.90;;;;;;6252324;23;20190;-90
2022/05/03 13:10:35;;;;;;;3.63;1.10;;;8.60;99.90;;;;;;6252535;23;20181;-90
2022/05/03 13:13:07;;;;;;;4.93;1.17;;;8.60;99.90;;;;;;6254053;23;20176;-90
2022/05/03 13:15:40;;;;;;;3.00;1.20;;;8.60;99.90;;;;;;6262891;23;20180;-89
2022/05/03 13:18:12;;;;;;;2.90;1.20;;;8.60;99.90;;;;;;6262781;22;20601;-90
2022/05/03 13:20:43;;;;;;;6.40;1.30;;;8.60;99.90;;;;;;6255633;23;20181;-90
2022/05/03 13:23:15;;;;;;;6.53;1.33;;;8.60;99.90;;;;;;6250794;23;20175;-90
2022/05/03 13:25:47;;;;;;;3.83;1.40;;;8.60;99.90;;;;;;6252344;23;20203;-90
2022/05/03 13:28:19;;;;;;;5.60;1.20;;;8.70;99.90;;;;;;6257576;23;20207;-90
2022/05/03 13:30:54;;;;;;;6.13;1.20;;;8.60;99.90;;;;;;6254583;23;20630;-90
2022/05/03 13:33:26;;;;;;;2.03;1.10;;;8.70;99.90;;;;;;6230794;23;20175;-90
2022/05/03 13:41:57;;;;;;;4.53;1.87;;;8.70;99.90;;;;;;6256152;23;20172;-90
2022/05/03 13:44:28;;;;;;;7.27;2.00;;;8.80;99.90;;;;;;6250211;23;20195;-90
2022/05/03 13:47:02;;;;;;;6.13;1.43;;;8.80;99.90;;;;;;6225085;23;20192;-89
2022/05/03 13:49:34;;;;;;;3.57;1.60;;;8.80;99.90;;;;;;6249325;22;20182;-90
2022/05/03 13:52:06;;;;;;;5.63;1.80;;;8.80;99.90;;;;;;6249868;23;20175;-90
2022/05/03 13:54:37;;;;;;;5.30;1.87;;;8.80;99.90;;;;;;6250558;23;20175;-90
2022/05/03 13:57:10;;;;;;;3.20;1.53;;;8.80;99.90;;;;;;6251386;23;20168;-90
2022/05/03 13:59:42;;;;;;;2.87;1.57;;;8.80;99.90;;;;;;6249912;23;20235;-90
2022/05/03 14:02:15;;;;;;;6.87;2.47;;;8.80;99.90;;;;;;6250555;23;20202;-90
2022/05/03 14:04:46;;;;;;;5.43;1.87;;;8.90;99.90;;;;;;6250170;23;20238;-91
2022/05/03 14:07:19;;;;;;;2.83;1.67;;;8.80;99.90;;;;;;6250950;23;20179;-91
2022/05/03 14:09:53;;;;;;;5.87;1.90;;;8.80;99.90;;;;;;6260331;22;20204;-89
2022/05/03 14:12:25;;;;;;;5.67;2.10;;;8.80;99.90;;;;;;6253334;23;20173;-90
2022/05/03 14:14:57;;;;;;;3.97;1.80;;;8.90;99.90;;;;;;6259817;23;20182;-90
2022/05/03 14:17:35;;;;;;;6.73;2.50;;;9.00;99.90;;;;;;6232625;23;20253;-90
2022/05/03 14:20:07;;;;;;;4.83;1.70;;;8.90;99.90;;;;;;6268839;23;20186;-89
2022/05/03 14:22:39;;;;;;;6.47;1.97;;;9.00;99.90;;;;;;6268728;23;20175;-89
2022/05/03 14:25:14;;;;;;;5.63;1.90;;;8.90;99.90;;;;;;6242652;23;20232;-90
2022/05/03 14:27:47;;;;;;;7.33;2.13;;;8.90;99.90;;;;;;6257878;23;20229;-89
2022/05/03 14:30:19;;;;;;;8.00;2.53;;;8.90;99.90;;;;;;6258442;23;20708;-89